Dades meteomassalio
Diari Summary for Octubre 27, 2017 Units:  Metric    English   Both
« Previous Day
Next Day »
Diari Semanal Mensual Anual Personalitzat
  Maxima: Minima: Mijana:
Temperatura: -17.8 °C -15 °C -9.4 °C
Rosada: -17.8 °C -20.6 °C -14.2 °C
Humitat: Humidity % 40 % 58 %
Velocitat del vent: 0 km/h 0 km/h 32.8 km/h
Racha vent: 0 km/h - -
Vent:- - SSW
Pressio: 0 hPa 34760.7 hPa -
Pluja: 0 mm    
Historical Graphs
 
 
Tabular Data for Octubre 27, 2017
Time Temperature Dew Point Pressure Wind Wind Speed Wind Gust Humidity Rainfall Rate (Hourly) solar Conditions
-17.8 °C -17.8 °C 0 hPa Calm     Humidity % 0 mm SolarRadiationWatts/m^2 W/m2 Conditions
00:03 -12.8 °C -15.8 °C 34899.5 hPa Calm     69 % 0 mm 0.0 W/m2 CLR
00:08 -13.2 °C -16.1 °C 34899.5 hPa Calm     69 % 0 mm 0.0 W/m2 CLR
00:13 -13.2 °C -16 °C 34899.5 hPa Calm     70 % 0 mm 0.0 W/m2 CLR
00:18 -13.2 °C -16 °C 34899.5 hPa Calm     70 % 0 mm 0.0 W/m2 CLR
00:24 -13.2 °C -15.8 °C 34899.5 hPa Calm     72 % 0 mm 0.0 W/m2 CLR
00:29 -13.2 °C -15.8 °C 34899.5 hPa Calm     72 % 0 mm 0.0 W/m2 CLR
00:34 -12.8 °C -15.5 °C 34899.5 hPa Calm     72 % 0 mm 0.0 W/m2 CLR
00:39 -13.2 °C -15.8 °C 34899.5 hPa Calm     72 % 0 mm 0.0 W/m2 CLR
00:44 -13.2 °C -15.8 °C 34899.5 hPa Calm     72 % 0 mm 0.0 W/m2 CLR
00:49 -13.2 °C -15.8 °C 34899.5 hPa Calm     72 % 0 mm 0.0 W/m2 CLR
00:54 -13.4 °C -16.1 °C 34899.5 hPa Calm     72 % 0 mm 0.0 W/m2 CLR
00:59 -13.4 °C -16.1 °C 34899.5 hPa Calm     72 % 0 mm 0.0 W/m2 CLR
01:04 -13.4 °C -15.9 °C 34899.5 hPa SE 6 km/h 6 km/h 74 % 0 mm 0.0 W/m2 CLR
01:09 -13.4 °C -15.9 °C 34899.5 hPa SSE 15 km/h 15 km/h 74 % 0 mm 0.0 W/m2 CLR
01:14 -13.2 °C -15.6 °C 34899.5 hPa Calm     74 % 0 mm 0.0 W/m2 CLR
01:24 -13.4 °C -15.9 °C 34899.5 hPa Calm     74 % 0 mm 0.0 W/m2 CLR
01:29 -13.4 °C -15.8 °C 34899.5 hPa Calm     75 % 0 mm 0.0 W/m2 CLR
01:34 -13.8 °C -15.9 °C 34899.5 hPa SE 10.3 km/h 10.3 km/h 76 % 0 mm 0.0 W/m2 CLR
01:39 -13.8 °C -16.1 °C 34899.5 hPa SE 11.9 km/h 11.9 km/h 75 % 0 mm 0.0 W/m2 CLR
01:44 -13.8 °C -16.2 °C 34899.5 hPa SE 7.7 km/h 7.7 km/h 74 % 0 mm 0.0 W/m2 CLR
01:49 -13.4 °C -15.9 °C 34899.5 hPa Calm     74 % 0 mm 0.0 W/m2 CLR
01:54 -13.4 °C -15.9 °C 34899.5 hPa SSE 12.9 km/h 12.9 km/h 74 % 0 mm 0.0 W/m2 CLR
01:59 -13.2 °C -15.7 °C 34899.5 hPa SSE 9 km/h 9 km/h 73 % 0 mm 0.0 W/m2 CLR
02:04 -13.2 °C -15.7 °C 34899.5 hPa South 11.9 km/h 11.9 km/h 73 % 0 mm 0.0 W/m2 CLR
02:09 -13.4 °C -16 °C 34899.5 hPa Calm     73 % 0 mm 0.0 W/m2 CLR
02:14 -13.4 °C -16.1 °C 34899.5 hPa Calm     72 % 0 mm 0.0 W/m2 CLR
02:19 -13.4 °C -16.1 °C 34899.5 hPa Calm     72 % 0 mm 0.0 W/m2 CLR
02:24 -13.4 °C -16 °C 34899.5 hPa Calm     73 % 0 mm 0.0 W/m2 CLR
02:29 -13.4 °C -16 °C 34899.5 hPa Calm     73 % 0 mm 0.0 W/m2 CLR
02:34 -13.4 °C -16 °C 34899.5 hPa Calm     73 % 0 mm 0.0 W/m2 CLR
02:39 -13.8 °C -16.2 °C 34899.5 hPa Calm     74 % 0 mm 0.0 W/m2 CLR
02:44 -13.8 °C -16.2 °C 34889.3 hPa Calm     74 % 0 mm 0.0 W/m2 CLR
02:49 -13.4 °C -15.9 °C 34889.3 hPa Calm     74 % 0 mm 0.0 W/m2 CLR
02:54 -13.4 °C -15.9 °C 34889.3 hPa Calm     74 % 0 mm 0.0 W/m2 CLR
02:59 -13.4 °C -15.9 °C 34889.3 hPa Calm     74 % 0 mm 0.0 W/m2 CLR
03:04 -13.4 °C -15.9 °C 34889.3 hPa Calm     74 % 0 mm 0.0 W/m2 CLR
03:09 -13.2 °C -15.6 °C 34889.3 hPa Calm     74 % 0 mm 0.0 W/m2 CLR
03:14 -13.2 °C -15.6 °C 34889.3 hPa Calm     74 % 0 mm 0.0 W/m2 CLR
03:19 -13.4 °C -15.9 °C 34889.3 hPa Calm     74 % 0 mm 0.0 W/m2 CLR
03:24 -13.4 °C -15.9 °C 34889.3 hPa Calm     74 % 0 mm 0.0 W/m2 CLR
03:29 -13.8 °C -16.2 °C 34889.3 hPa Calm     74 % 0 mm 0.0 W/m2 CLR
03:34 -13.8 °C -16.3 °C 34889.3 hPa Calm     73 % 0 mm 0.0 W/m2 CLR
03:39 -13.8 °C -16.3 °C 34889.3 hPa Calm     73 % 0 mm 0.0 W/m2 CLR
03:44 -13.4 °C -16 °C 34889.3 hPa Calm     73 % 0 mm 0.0 W/m2 CLR
03:49 -13.4 °C -16 °C 34889.3 hPa Calm     73 % 0 mm 0.0 W/m2 CLR
03:54 -13.4 °C -16 °C 34875.8 hPa Calm     73 % 0 mm 0.0 W/m2 CLR
03:59 -13.2 °C -15.7 °C 34875.8 hPa Calm     73 % 0 mm 0.0 W/m2 CLR
04:04 -13.4 °C -16 °C 34875.8 hPa Calm     73 % 0 mm 0.0 W/m2 CLR
04:09 -13.4 °C -16 °C 34875.8 hPa Calm     73 % 0 mm 0.0 W/m2 CLR
04:14 -13.4 °C -16 °C 34875.8 hPa Calm     73 % 0 mm 0.0 W/m2 CLR
04:19 -13.4 °C -16 °C 34875.8 hPa Calm     73 % 0 mm 0.0 W/m2 CLR
04:24 -13.4 °C -15.9 °C 34875.8 hPa Calm     74 % 0 mm 0.0 W/m2 CLR
04:29 -13.8 °C -16.2 °C 34875.8 hPa Calm     74 % 0 mm 0.0 W/m2 CLR
04:34 -13.8 °C -16.1 °C 34875.8 hPa Calm     75 % 0 mm 0.0 W/m2 CLR
04:39 -13.8 °C -16.1 °C 34865.6 hPa Calm     75 % 0 mm 0.0 W/m2 CLR
04:44 -13.8 °C -16.1 °C 34875.8 hPa Calm     75 % 0 mm 0.0 W/m2 CLR
04:49 -13.8 °C -16.1 °C 34865.6 hPa SE 2.6 km/h   75 % 0 mm 0.0 W/m2 CLR
04:54 -13.8 °C -16.2 °C 34865.6 hPa ESE 9 km/h 9 km/h 74 % 0 mm 0.0 W/m2 CLR
04:59 -13.8 °C -16.2 °C 34865.6 hPa ESE 11.9 km/h 11.9 km/h 74 % 0 mm 0.0 W/m2 CLR
05:04 -13.8 °C -16.3 °C 34865.6 hPa SE 9 km/h 9 km/h 73 % 0 mm 0.0 W/m2 CLR
05:09 -13.8 °C -16.5 °C 34865.6 hPa Calm     71 % 0 mm 0.0 W/m2 CLR
05:14 -13.8 °C -16.7 °C 34865.6 hPa Calm     69 % 0 mm 0.0 W/m2 CLR
05:19 -14.1 °C -17.1 °C 34865.6 hPa Calm     68 % 0 mm 0.0 W/m2 CLR
05:24 -14.1 °C -17.1 °C 34865.6 hPa Calm     68 % 0 mm 0.0 W/m2 CLR
05:29 -14.1 °C -17.1 °C 34865.6 hPa Calm     68 % 0 mm 0.0 W/m2 CLR
05:34 -14.1 °C -17.1 °C 34865.6 hPa Calm     68 % 0 mm 0.0 W/m2 CLR
05:39 -14.1 °C -17 °C 34865.6 hPa Calm     69 % 0 mm 0.0 W/m2 CLR
05:44 -14.1 °C -17 °C 34865.6 hPa Calm     69 % 0 mm 0.0 W/m2 CLR
05:49 -14.1 °C -17 °C 34865.6 hPa Calm     69 % 0 mm 0.0 W/m2 CLR
05:54 -14.1 °C -16.9 °C 34865.6 hPa Calm     70 % 0 mm 0.0 W/m2 CLR
05:59 -14.1 °C -16.9 °C 34865.6 hPa Calm     70 % 0 mm 0.0 W/m2 CLR
06:04 -13.8 °C -16.6 °C 34865.6 hPa Calm     70 % 0 mm 0.0 W/m2 CLR
06:09 -13.8 °C -16.5 °C 34865.6 hPa Calm     71 % 0 mm 0.0 W/m2 CLR
06:14 -13.8 °C -16.5 °C 34865.6 hPa Calm     71 % 0 mm 0.0 W/m2 CLR
06:19 -14.1 °C -16.8 °C 34865.6 hPa Calm     71 % 0 mm 0.0 W/m2 CLR
06:24 -14.1 °C -16.8 °C 34865.6 hPa Calm     71 % 0 mm 0.0 W/m2 CLR
06:29 -14.4 °C -17.2 °C 34865.6 hPa Calm     70 % 0 mm 0.0 W/m2 CLR
06:35 -14.4 °C -17.3 °C 34865.6 hPa Calm     69 % 0 mm 0.0 W/m2 CLR
06:40 -14.4 °C -17.3 °C 34865.6 hPa Calm     69 % 0 mm 0.0 W/m2 CLR
06:45 -14.1 °C -17 °C 34865.6 hPa Calm     69 % 0 mm 0.0 W/m2 CLR
06:50 -13.8 °C -16.7 °C 34875.8 hPa Calm     69 % 0 mm 0.0 W/m2 CLR
06:55 -13.8 °C -16.6 °C 34875.8 hPa SSW 6 km/h   70 % 0 mm 0.0 W/m2 CLR
07:00 -14.1 °C -16.9 °C 34865.6 hPa Calm     70 % 0 mm 0.0 W/m2 CLR
07:05 -14.1 °C -16.9 °C 34875.8 hPa SSE 2.6 km/h 2.6 km/h 70 % 0 mm 0.0 W/m2 CLR
07:10 -14.1 °C -16.9 °C 34875.8 hPa SSE 12.9 km/h 12.9 km/h 70 % 0 mm 0.0 W/m2 CLR
07:15 -14.1 °C -17.3 °C 34865.6 hPa SSE 11.9 km/h 11.9 km/h 67 % 0 mm 0.0 W/m2 CLR
07:20 -14.4 °C -17.8 °C 34865.6 hPa South 15 km/h 15 km/h 65 % 0 mm 0.0 W/m2 CLR
07:25 -14.4 °C -18 °C 34865.6 hPa South 9 km/h 9 km/h 63 % 0 mm 0.0 W/m2 CLR
07:30 -14.4 °C -18.2 °C 34865.6 hPa Calm     61 % 0 mm 0.0 W/m2 CLR
07:35 -14.4 °C -18.4 °C 34865.6 hPa Calm     60 % 0 mm 0.0 W/m2 CLR
07:40 -14.7 °C -18.8 °C 34865.6 hPa Calm     59 % 0 mm 0.0 W/m2 CLR
07:45 -14.7 °C -18.7 °C 34865.6 hPa Calm     60 % 0 mm 0.0 W/m2 CLR
07:50 -14.7 °C -18.7 °C 34865.6 hPa Calm   0.3 km/h 60 % 0 mm 0.0 W/m2 CLR
07:55 -15 °C -18.9 °C 34865.6 hPa SSE 11.9 km/h 11.9 km/h 60 % 0 mm 0.0 W/m2 CLR
08:00 -15 °C -18.9 °C 34865.6 hPa South 9 km/h 9 km/h 60 % 0 mm 0.0 W/m2 CLR
08:05 -15 °C -19.1 °C 34865.6 hPa South 6 km/h 6 km/h 59 % 0 mm 0.0 W/m2 CLR
08:10 -15 °C -19.1 °C 34865.6 hPa SSE 9 km/h 9 km/h 59 % 0 mm 0.0 W/m2 CLR
08:15 -15 °C -19.1 °C 34865.6 hPa SSE 9 km/h 9 km/h 59 % 0 mm 0.0 W/m2 OVC
08:20 -15 °C -19.1 °C 34865.6 hPa South 11.9 km/h 11.9 km/h 59 % 0 mm 0.0 W/m2 OVC
08:25 -15 °C -19.1 °C 34865.6 hPa South 9 km/h 9 km/h 59 % 0 mm 5.0 W/m2 OVC
08:30 -15 °C -18.9 °C 34865.6 hPa South 17.9 km/h 17.9 km/h 60 % 0 mm 7.0 W/m2 BKN
08:35 -15 °C -19.1 °C 34865.6 hPa South 23.3 km/h 23.3 km/h 59 % 0 mm 12.0 W/m2 BKN
08:40 -15 °C -19.6 °C 34865.6 hPa SSW 26.9 km/h 26.9 km/h 55 % 0 mm 16.0 W/m2 BKN
08:45 -15 °C -20.2 °C 34865.6 hPa South 26.9 km/h 26.9 km/h 51 % 0 mm 19.0 W/m2 BKN
08:50 -15 °C -20.4 °C 34865.6 hPa SSW 35.7 km/h 35.7 km/h 49 % 0 mm 25.0 W/m2 BKN
08:55 -15 °C -20.6 °C 34865.6 hPa SSW 35.7 km/h 35.7 km/h 48 % 0 mm 30.0 W/m2 BKN
09:00 -14.7 °C -20.3 °C 34865.6 hPa SSW 31.1 km/h 31.1 km/h 48 % 0 mm 37.0 W/m2 BKN
09:05 -14.7 °C -20.5 °C 34865.6 hPa SSW 26.9 km/h 26.9 km/h 47 % 0 mm 47.0 W/m2 SCT
09:10 -14.4 °C -20.2 °C 34865.6 hPa SSW 29.8 km/h 29.8 km/h 47 % 0 mm 56.0 W/m2 SCT
09:15 -14.4 °C -20.4 °C 34875.8 hPa SSW 23.8 km/h 23.8 km/h 46 % 0 mm 69.0 W/m2 FEW
09:20 -14.4 °C -20.4 °C 34875.8 hPa SSW 15.6 km/h 15.6 km/h 46 % 0 mm 70.0 W/m2 FEW
09:25 -14.1 °C -20.1 °C 34875.8 hPa SSW 26.9 km/h 26.9 km/h 46 % 0 mm 93.0 W/m2 FEW
09:30 -13.8 °C -19.6 °C 34865.6 hPa SSW 36.2 km/h 36.2 km/h 47 % 0 mm 107.0 W/m2 CLR
09:35 -13.8 °C -19.8 °C 34875.8 hPa South 35.7 km/h 35.7 km/h 46 % 0 mm 125.0 W/m2 CLR
09:40 -12.8 °C -18.9 °C 34875.8 hPa SW 41.7 km/h 41.7 km/h 46 % 0 mm 141.0 W/m2 CLR
09:45 -11.6 °C -18 °C 34875.8 hPa SSW 50.7 km/h 50.7 km/h 45 % 0 mm 156.0 W/m2 CLR
09:50 -10.7 °C -17.2 °C 34875.8 hPa SSW 38.8 km/h 38.8 km/h 45 % 0 mm 141.0 W/m2 CLR
09:55 -8.8 °C -15.4 °C 34875.8 hPa SW 41.7 km/h 41.7 km/h 45 % 0 mm 158.0 W/m2 CLR
10:00 -8.2 °C -14.9 °C 34875.8 hPa South 32.8 km/h 32.8 km/h 45 % 0 mm 139.0 W/m2 CLR
10:05 -7.9 °C -14.6 °C 34875.8 hPa South 23.8 km/h 23.8 km/h 45 % 0 mm 220.0 W/m2 CLR
10:10 -7.6 °C -14.3 °C 34875.8 hPa SSW 29.8 km/h 29.8 km/h 45 % 0 mm 234.0 W/m2 CLR
10:15 -7.6 °C -14.3 °C 34875.8 hPa South 17.9 km/h 17.9 km/h 45 % 0 mm 246.0 W/m2 CLR
10:20 -7.6 °C -14.2 °C 34875.8 hPa SW 20.9 km/h 20.9 km/h 46 % 0 mm 260.0 W/m2 CLR
10:25 -7.3 °C -13.9 °C 34875.8 hPa SSW 28.5 km/h 28.5 km/h 46 % 0 mm 274.0 W/m2 CLR
10:30 -7.3 °C -14.1 °C 34875.8 hPa SSW 47.6 km/h 47.6 km/h 45 % 0 mm 288.0 W/m2 CLR
10:35 -7 °C -13.8 °C 34875.8 hPa SSW 38.8 km/h 38.8 km/h 45 % 0 mm 302.0 W/m2 CLR
10:40 -7 °C -13.8 °C 34875.8 hPa SSW 53.6 km/h 53.6 km/h 45 % 0 mm 316.0 W/m2 CLR
10:45 -7 °C -13.8 °C 34875.8 hPa SW 44.7 km/h 44.7 km/h 45 % 0 mm 329.0 W/m2 CLR
10:50 -6.7 °C -13.5 °C 34875.8 hPa SW 33.6 km/h 33.6 km/h 45 % 0 mm 341.0 W/m2 CLR
10:55 -6.7 °C -13.5 °C 34875.8 hPa SSW 35.7 km/h 35.7 km/h 45 % 0 mm 352.0 W/m2 CLR
11:00 -6.7 °C -13.5 °C 34865.6 hPa SW 50.7 km/h 50.7 km/h 45 % 0 mm 367.0 W/m2 CLR
11:05 -6.3 °C -13.4 °C 34865.6 hPa SW 38.8 km/h 38.8 km/h 44 % 0 mm 378.0 W/m2 CLR
11:10 -6.3 °C -13.4 °C 34865.6 hPa SSW 44.7 km/h 44.7 km/h 44 % 0 mm 387.0 W/m2 CLR
11:15 -6.3 °C -13.4 °C 34865.6 hPa SW 32.8 km/h 32.8 km/h 44 % 0 mm 397.0 W/m2 CLR
11:20 -6.1 °C -13.1 °C 34865.6 hPa SSW 47.6 km/h 47.6 km/h 44 % 0 mm 410.0 W/m2 CLR
11:25 -6.1 °C -13.1 °C 34865.6 hPa SW 38.8 km/h 38.8 km/h 44 % 0 mm 422.0 W/m2 CLR
11:30 -6.1 °C -13.3 °C 34865.6 hPa South 50.7 km/h 50.7 km/h 43 % 0 mm 434.0 W/m2 CLR
11:35 -6.1 °C -13.5 °C 34865.6 hPa SSW 36.2 km/h 36.2 km/h 42 % 0 mm 443.0 W/m2 CLR
11:40 -5.7 °C -13.2 °C 34865.6 hPa SW 56.6 km/h 56.6 km/h 42 % 0 mm 454.0 W/m2 CLR
11:45 -5.4 °C -13.2 °C 34852.1 hPa WSW 59.5 km/h 59.5 km/h 41 % 0 mm 466.0 W/m2 CLR
11:50 -5.4 °C -13.4 °C 34865.6 hPa SW 41.7 km/h 41.7 km/h 40 % 0 mm 473.0 W/m2 CLR
11:55 -5.4 °C -13.4 °C 34865.6 hPa SW 53.6 km/h 53.6 km/h 40 % 0 mm 482.0 W/m2 CLR
12:00 -5.1 °C -13.1 °C 34852.1 hPa SW 59.5 km/h 59.5 km/h 40 % 0 mm 490.0 W/m2 CLR
12:05 -5.1 °C -13.1 °C 34865.6 hPa SW 56.6 km/h 56.6 km/h 40 % 0 mm 501.0 W/m2 CLR
12:10 -5.1 °C -13.1 °C 34865.6 hPa SW 33.6 km/h 33.6 km/h 40 % 0 mm 508.0 W/m2 CLR
12:15 -4.8 °C -12.8 °C 34865.6 hPa WSW 57 km/h 57 km/h 40 % 0 mm 512.0 W/m2 CLR
12:20 -4.8 °C -12.8 °C 34865.6 hPa SSW 44.7 km/h 44.7 km/h 40 % 0 mm 519.0 W/m2 CLR
12:25 -4.8 °C -12.8 °C 34852.1 hPa West 50.7 km/h 50.7 km/h 40 % 0 mm 526.0 W/m2 CLR
12:30 -4.8 °C -12.8 °C 34852.1 hPa SSW 68.6 km/h 68.6 km/h 40 % 0 mm 531.0 W/m2 CLR
12:36 -4.8 °C -12.6 °C 34852.1 hPa WSW 44.7 km/h 44.7 km/h 41 % 0 mm 538.0 W/m2 CLR
12:41 -4.8 °C -12.6 °C 34852.1 hPa WSW 65.5 km/h 65.5 km/h 41 % 0 mm 540.0 W/m2 CLR
12:46 -4.5 °C -12.3 °C 34852.1 hPa WSW 71.5 km/h 71.5 km/h 41 % 0 mm 541.0 W/m2 CLR
12:51 -4.5 °C -12.3 °C 34852.1 hPa SSW 62.6 km/h 62.6 km/h 41 % 0 mm 548.0 W/m2 CLR
12:56 -4.5 °C -12.3 °C 34841.9 hPa SSW 68.6 km/h 68.6 km/h 41 % 0 mm 550.0 W/m2 CLR
13:01 -4.5 °C -12.3 °C 34841.9 hPa SW 50.7 km/h 50.7 km/h 41 % 0 mm 555.0 W/m2 CLR
13:06 -4.5 °C -12.3 °C 34841.9 hPa SW 56.6 km/h 56.6 km/h 41 % 0 mm 559.0 W/m2 CLR
13:11 -4.5 °C -12.3 °C 34841.9 hPa SSW 65.5 km/h 65.5 km/h 41 % 0 mm 559.0 W/m2 CLR
13:16 -4.5 °C -12.3 °C 34841.9 hPa SW 50.7 km/h 50.7 km/h 41 % 0 mm 561.0 W/m2 CLR
13:21 -4.5 °C -12.3 °C 34831.8 hPa SSW 50.7 km/h 50.7 km/h 41 % 0 mm 561.0 W/m2 CLR
13:26 -4.5 °C -12.3 °C 34831.8 hPa SSW 57 km/h 57 km/h 41 % 0 mm 564.0 W/m2 CLR
13:31 -4.2 °C -12.1 °C 34831.8 hPa SSW 80.5 km/h 80.5 km/h 41 % 0 mm 555.0 W/m2 CLR
13:36 -4.2 °C -12.1 °C 34831.8 hPa SW 53.6 km/h 53.6 km/h 41 % 0 mm 566.0 W/m2 CLR
13:41 -4.2 °C -12.1 °C 34818.2 hPa SW 62.6 km/h 62.6 km/h 41 % 0 mm 570.0 W/m2 CLR
13:46 -4.2 °C -12.1 °C 34818.2 hPa SSW 62.6 km/h 62.6 km/h 41 % 0 mm 570.0 W/m2 CLR
13:51 -4.2 °C -12.1 °C 34818.2 hPa SW 68.6 km/h 68.6 km/h 41 % 0 mm 559.0 W/m2 CLR
13:56 -4.2 °C -12.1 °C 34818.2 hPa WSW 80.5 km/h 80.5 km/h 41 % 0 mm 563.0 W/m2 CLR
14:01 -4.2 °C -12.1 °C 34818.2 hPa SSW 71.5 km/h 71.5 km/h 41 % 0 mm 559.0 W/m2 CLR
14:06 -4.2 °C -11.8 °C 34808.1 hPa SSW 68.6 km/h 68.6 km/h 42 % 0 mm 559.0 W/m2 CLR
14:11 -4.2 °C -12.1 °C 34808.1 hPa SW 68.6 km/h 68.6 km/h 41 % 0 mm 563.0 W/m2 CLR
14:16 -4.2 °C -12.1 °C 34808.1 hPa SW 59.5 km/h 59.5 km/h 41 % 0 mm 559.0 W/m2 CLR
14:21 -4.2 °C -12.1 °C 34797.9 hPa WSW 50.7 km/h 50.7 km/h 41 % 0 mm 559.0 W/m2 CLR
14:26 -4.2 °C -12.1 °C 34797.9 hPa SW 62.6 km/h 62.6 km/h 41 % 0 mm 552.0 W/m2 CLR
14:31 -4.2 °C -12.1 °C 34797.9 hPa SW 80.5 km/h 80.5 km/h 41 % 0 mm 550.0 W/m2 CLR
14:36 -4.2 °C -12.1 °C 34797.9 hPa SW 68.6 km/h 68.6 km/h 41 % 0 mm 540.0 W/m2 CLR
14:41 -4.2 °C -12.1 °C 34797.9 hPa WSW 74.5 km/h 74.5 km/h 41 % 0 mm 536.0 W/m2 CLR
14:46 -4.2 °C -12.1 °C 34797.9 hPa SW 71.5 km/h 71.5 km/h 41 % 0 mm 529.0 W/m2 CLR
14:56 -4.2 °C -12.1 °C 34784.4 hPa SW 59.5 km/h 59.5 km/h 41 % 0 mm 527.0 W/m2 CLR
15:01 -4.2 °C -12.1 °C 34784.4 hPa SW 53.6 km/h 53.6 km/h 41 % 0 mm 522.0 W/m2 CLR
15:06 -4.2 °C -11.8 °C 34784.4 hPa SW 68.6 km/h 68.6 km/h 42 % 0 mm 519.0 W/m2 CLR
15:11 -4.2 °C -11.6 °C 34784.4 hPa West 65.5 km/h 65.5 km/h 43 % 0 mm 508.0 W/m2 CLR
15:16 -4.5 °C -11.7 °C 34784.4 hPa WSW 74.5 km/h 74.5 km/h 44 % 0 mm 501.0 W/m2 CLR
15:21 -4.5 °C -11.6 °C 34774.2 hPa WSW 65.5 km/h 65.5 km/h 45 % 0 mm 490.0 W/m2 CLR
15:26 -4.5 °C -11.6 °C 34774.2 hPa SSW 59.5 km/h 59.5 km/h 45 % 0 mm 489.0 W/m2 CLR
15:31 -4.5 °C -11.6 °C 34774.2 hPa SSW 62.6 km/h 62.6 km/h 45 % 0 mm 480.0 W/m2 CLR
15:36 -4.5 °C -11.3 °C 34774.2 hPa SW 53.6 km/h 53.6 km/h 46 % 0 mm 473.0 W/m2 CLR
15:41 -4.5 °C -11.2 °C 34774.2 hPa WSW 65.5 km/h 65.5 km/h 47 % 0 mm 464.0 W/m2 CLR
15:46 -4.8 °C -11.3 °C 34774.2 hPa WSW 56.6 km/h 56.6 km/h 48 % 0 mm 448.0 W/m2 CLR
15:51 -4.8 °C -11.3 °C 34774.2 hPa SW 62.6 km/h 62.6 km/h 48 % 0 mm 439.0 W/m2 CLR
15:56 -4.8 °C -11.3 °C 34774.2 hPa SW 44.7 km/h 44.7 km/h 48 % 0 mm 432.0 W/m2 CLR
16:01 -4.8 °C -11.3 °C 34774.2 hPa WSW 38.8 km/h 38.8 km/h 48 % 0 mm 420.0 W/m2 CLR
16:06 -4.8 °C -11.3 °C 34774.2 hPa West 51.8 km/h 51.8 km/h 48 % 0 mm 411.0 W/m2 CLR
16:11 -4.8 °C -11.3 °C 34760.7 hPa West 44.1 km/h 44.1 km/h 48 % 0 mm 397.0 W/m2 CLR
16:16 -4.8 °C -11.3 °C 34774.2 hPa SW 62.6 km/h 62.6 km/h 48 % 0 mm 388.0 W/m2 CLR
16:21 -4.8 °C -11.3 °C 34774.2 hPa West 56.6 km/h 56.6 km/h 48 % 0 mm 380.0 W/m2 CLR
16:26 -4.8 °C -11.3 °C 34774.2 hPa WSW 50.7 km/h 50.7 km/h 48 % 0 mm 366.0 W/m2 CLR
16:31 -5.1 °C -11.6 °C 34774.2 hPa WSW 54.4 km/h 54.4 km/h 48 % 0 mm 353.0 W/m2 CLR
16:36 -5.1 °C -11.6 °C 34774.2 hPa West 44.7 km/h 44.7 km/h 48 % 0 mm 338.0 W/m2 CLR
16:41 -5.1 °C -11.4 °C 34760.7 hPa SW 47.6 km/h 47.6 km/h 49 % 0 mm 334.0 W/m2 CLR
16:46 -5.1 °C -11.4 °C 34774.2 hPa WSW 65.5 km/h 65.5 km/h 49 % 0 mm 323.0 W/m2 CLR
16:51 -5.1 °C -11.4 °C 34774.2 hPa SW 59.5 km/h 59.5 km/h 49 % 0 mm 306.0 W/m2 CLR
17:01 -5.1 °C -11.4 °C 34774.2 hPa WSW 77.4 km/h 77.4 km/h 49 % 0 mm 281.0 W/m2 CLR
17:06 -5.4 °C -11.5 °C 34774.2 hPa WSW 80.5 km/h 80.5 km/h 50 % 0 mm 267.0 W/m2 CLR
17:11 -5.4 °C -11.5 °C 34774.2 hPa WNW 65.5 km/h 65.5 km/h 50 % 0 mm 251.0 W/m2 CLR
17:16 -5.4 °C -11.5 °C 34774.2 hPa WSW 64.7 km/h 64.7 km/h 50 % 0 mm 236.0 W/m2 CLR
17:21 -5.4 °C -11.3 °C 34774.2 hPa West 83.4 km/h 83.4 km/h 51 % 0 mm 220.0 W/m2 CLR
17:26 -5.4 °C -11.3 °C 34774.2 hPa SW 72.6 km/h 72.6 km/h 51 % 0 mm 209.0 W/m2 CLR
17:31 -5.7 °C -11.6 °C 34774.2 hPa West 44.7 km/h 44.7 km/h 51 % 0 mm 186.0 W/m2 CLR
17:32 -5.7 °C -11.6 °C 34774.2 hPa SSW 44.1 km/h 44.1 km/h 51 % 0 mm 186.0 W/m2 CLR
17:37 -5.7 °C -11.6 °C 34774.2 hPa SW 53.6 km/h 53.6 km/h 51 % 0 mm 171.0 W/m2 CLR
17:42 -5.7 °C -11.6 °C 34774.2 hPa WSW 80.5 km/h 80.5 km/h 51 % 0 mm 155.0 W/m2 CLR
17:47 -5.7 °C -11.4 °C 34774.2 hPa SSW 29.8 km/h 29.8 km/h 52 % 0 mm 139.0 W/m2 CLR
17:52 -5.7 °C -11.4 °C 34774.2 hPa SW 56.6 km/h 56.6 km/h 52 % 0 mm 127.0 W/m2 CLR
17:57 -6.1 °C -11.7 °C 34774.2 hPa WSW 54.4 km/h 54.4 km/h 52 % 0 mm 111.0 W/m2 CLR
18:02 -6.1 °C -11.6 °C 34774.2 hPa SW 54.4 km/h 54.4 km/h 53 % 0 mm 95.0 W/m2 CLR
18:07 -6.1 °C -11.6 °C 34784.4 hPa West 50.7 km/h 50.7 km/h 53 % 0 mm 77.0 W/m2 FEW
18:12 -6.1 °C -11.7 °C 34784.4 hPa SW 74.5 km/h 74.5 km/h 52 % 0 mm 69.0 W/m2 FEW
18:17 -6.3 °C -11.8 °C 34784.4 hPa SW 59.5 km/h 59.5 km/h 53 % 0 mm 53.0 W/m2 SCT
18:22 -6.3 °C -11.8 °C 34784.4 hPa WSW 54.4 km/h 54.4 km/h 53 % 0 mm 42.0 W/m2 BKN
18:27 -6.3 °C -11.7 °C 34784.4 hPa WSW 59.5 km/h 59.5 km/h 54 % 0 mm 40.0 W/m2 BKN
18:32 -6.7 °C -12 °C 34797.9 hPa WSW 68.6 km/h 68.6 km/h 54 % 0 mm 30.0 W/m2 BKN
18:37 -6.7 °C -12 °C 34797.9 hPa WSW 47.6 km/h 47.6 km/h 54 % 0 mm 23.0 W/m2 BKN
18:42 -6.7 °C -12 °C 34797.9 hPa SW 50.7 km/h 50.7 km/h 54 % 0 mm 19.0 W/m2 BKN
18:47 -6.7 °C -11.8 °C 34797.9 hPa SW 35.7 km/h 35.7 km/h 55 % 0 mm 14.0 W/m2 BKN
18:52 -7 °C -12.1 °C 34797.9 hPa West 49.2 km/h 49.2 km/h 55 % 0 mm 11.0 W/m2 BKN
18:57 -7 °C -12.1 °C 34797.9 hPa SSW 56.6 km/h 56.6 km/h 55 % 0 mm 7.0 W/m2 BKN
19:02 -7 °C -12.1 °C 34797.9 hPa West 59.5 km/h 59.5 km/h 55 % 0 mm 5.0 W/m2 OVC
19:07 -7 °C -12 °C 34797.9 hPa West 50.7 km/h 50.7 km/h 56 % 0 mm 0.0 W/m2 OVC
19:12 -7.3 °C -12.3 °C 34808.1 hPa WSW 53.6 km/h 53.6 km/h 56 % 0 mm 0.0 W/m2 CLR
19:17 -7.3 °C -12.3 °C 34808.1 hPa WSW 50.7 km/h 50.7 km/h 56 % 0 mm 0.0 W/m2 CLR
19:22 -7.3 °C -12.1 °C 34808.1 hPa SW 59.5 km/h 59.5 km/h 57 % 0 mm 0.0 W/m2 CLR
19:27 -7.3 °C -12.1 °C 34808.1 hPa WSW 62.6 km/h 62.6 km/h 57 % 0 mm 0.0 W/m2 CLR
19:32 -7.3 °C -12.1 °C 34808.1 hPa SW 53.6 km/h 53.6 km/h 57 % 0 mm 0.0 W/m2 CLR
19:37 -7.3 °C -12 °C 34808.1 hPa WSW 47.6 km/h 47.6 km/h 58 % 0 mm 0.0 W/m2 CLR
19:42 -7.3 °C -12 °C 34808.1 hPa SSW 41.7 km/h 41.7 km/h 58 % 0 mm 0.0 W/m2 CLR
19:47 -7.6 °C -12.3 °C 34808.1 hPa SW 53.6 km/h 53.6 km/h 58 % 0 mm 0.0 W/m2 CLR
19:52 -7.6 °C -12.3 °C 34808.1 hPa SW 65.5 km/h 65.5 km/h 58 % 0 mm 0.0 W/m2 CLR
19:57 -7.6 °C -12.1 °C 34818.2 hPa SSW 29.8 km/h 29.8 km/h 59 % 0 mm 0.0 W/m2 CLR
20:02 -7.6 °C -12.1 °C 34818.2 hPa South 29.8 km/h 29.8 km/h 59 % 0 mm 0.0 W/m2 CLR
20:07 -7.6 °C -12.1 °C 34818.2 hPa SSW 47.6 km/h 47.6 km/h 59 % 0 mm 0.0 W/m2 CLR
20:12 -7.6 °C -12 °C 34818.2 hPa SW 46.7 km/h 46.7 km/h 60 % 0 mm 0.0 W/m2 CLR
20:17 -7.9 °C -12.3 °C 34818.2 hPa SW 44.7 km/h 44.7 km/h 60 % 0 mm 0.0 W/m2 CLR
20:22 -7.6 °C -12 °C 34831.8 hPa SSW 35.7 km/h 35.7 km/h 60 % 0 mm 0.0 W/m2 CLR
20:27 -7.6 °C -12 °C 34831.8 hPa SSW 41.7 km/h 41.7 km/h 60 % 0 mm 0.0 W/m2 CLR
20:32 -7.9 °C -12.3 °C 34831.8 hPa SW 68.6 km/h 68.6 km/h 60 % 0 mm 0.0 W/m2 CLR
20:37 -7.6 °C -12 °C 34831.8 hPa SSW 41.7 km/h 41.7 km/h 60 % 0 mm 0.0 W/m2 CLR
20:42 -7.9 °C -12.3 °C 34831.8 hPa SW 50.7 km/h 50.7 km/h 60 % 0 mm 0.0 W/m2 CLR
20:47 -7.9 °C -12.1 °C 34831.8 hPa SSW 38.8 km/h 38.8 km/h 61 % 0 mm 0.0 W/m2 CLR
20:52 -7.9 °C -12.1 °C 34831.8 hPa SSW 50.7 km/h 50.7 km/h 61 % 0 mm 0.0 W/m2 CLR
20:57 -7.9 °C -12.1 °C 34831.8 hPa SW 56.6 km/h 56.6 km/h 61 % 0 mm 0.0 W/m2 CLR
21:02 -7.9 °C -12 °C 34831.8 hPa SW 38.8 km/h 38.8 km/h 62 % 0 mm 0.0 W/m2 CLR
21:07 -8.2 °C -12.3 °C 34831.8 hPa WSW 59.5 km/h 59.5 km/h 62 % 0 mm 0.0 W/m2 CLR
21:12 -8.2 °C -12.3 °C 34831.8 hPa WSW 50.7 km/h 50.7 km/h 62 % 0 mm 0.0 W/m2 CLR
21:17 -8.2 °C -12.3 °C 34831.8 hPa WSW 47.6 km/h 47.6 km/h 62 % 0 mm 0.0 W/m2 CLR
21:22 -8.2 °C -12.2 °C 34831.8 hPa SW 50.7 km/h 50.7 km/h 63 % 0 mm 0.0 W/m2 CLR
21:27 -8.2 °C -12.2 °C 34831.8 hPa SSW 38.8 km/h 38.8 km/h 63 % 0 mm 0.0 W/m2 CLR
21:32 -8.2 °C -12.1 °C 34831.8 hPa SSW 62.6 km/h 62.6 km/h 64 % 0 mm 0.0 W/m2 CLR
21:37 -8.2 °C -12.1 °C 34831.8 hPa SSW 44.7 km/h 44.7 km/h 64 % 0 mm 0.0 W/m2 CLR
21:42 -8.2 °C -12.1 °C 34831.8 hPa SSW 47.6 km/h 47.6 km/h 64 % 0 mm 0.0 W/m2 CLR
21:48 -8.2 °C -12.1 °C 34831.8 hPa SSW 41.4 km/h 41.4 km/h 64 % 0 mm 0.0 W/m2 CLR
21:53 -8.2 °C -12.1 °C 34831.8 hPa SSW 53.6 km/h 53.6 km/h 64 % 0 mm 0.0 W/m2 CLR
21:58 -8.2 °C -12.1 °C 34831.8 hPa South 41.7 km/h 41.7 km/h 64 % 0 mm 0.0 W/m2 CLR
22:03 -8.5 °C -12.3 °C 34841.9 hPa SSW 26.9 km/h 26.9 km/h 64 % 0 mm 0.0 W/m2 CLR
22:08 -8.5 °C -12.2 °C 34841.9 hPa SSW 44.7 km/h 44.7 km/h 65 % 0 mm 0.0 W/m2 CLR
22:13 -8.5 °C -12.2 °C 34841.9 hPa SW 38.8 km/h 38.8 km/h 65 % 0 mm 0.0 W/m2 CLR
22:18 -8.5 °C -12.2 °C 34841.9 hPa SSW 38.8 km/h 38.8 km/h 65 % 0 mm 0.0 W/m2 CLR
22:23 -8.5 °C -12.2 °C 34841.9 hPa SW 35.7 km/h 35.7 km/h 65 % 0 mm 0.0 W/m2 CLR
22:28 -8.5 °C -12.2 °C 34841.9 hPa SSW 44.7 km/h 44.7 km/h 65 % 0 mm 0.0 W/m2 CLR
22:33 -8.5 °C -12.2 °C 34841.9 hPa SSW 50.7 km/h 50.7 km/h 65 % 0 mm 0.0 W/m2 CLR
22:38 -8.5 °C -12.2 °C 34841.9 hPa SSW 50.7 km/h 50.7 km/h 65 % 0 mm 0.0 W/m2 CLR
22:43 -8.5 °C -12.2 °C 34841.9 hPa SSW 44.7 km/h 44.7 km/h 65 % 0 mm 0.0 W/m2 CLR
22:48 -8.5 °C -12.2 °C 34841.9 hPa SSW 47.6 km/h 47.6 km/h 65 % 0 mm 0.0 W/m2 CLR
22:53 -8.5 °C -12.2 °C 34841.9 hPa South 35.7 km/h 35.7 km/h 65 % 0 mm 0.0 W/m2 CLR
22:58 -8.8 °C -12.5 °C 34841.9 hPa SSW 29.8 km/h 29.8 km/h 65 % 0 mm 0.0 W/m2 CLR
23:03 -8.8 °C -12.5 °C 34841.9 hPa SSW 49.2 km/h 49.2 km/h 65 % 0 mm 0.0 W/m2 CLR
23:08 -8.8 °C -12.5 °C 34852.1 hPa SSW 31.1 km/h 31.1 km/h 65 % 0 mm 0.0 W/m2 CLR
23:13 -8.8 °C -12.3 °C 34841.9 hPa SSW 41.7 km/h 41.7 km/h 66 % 0 mm 0.0 W/m2 CLR
23:18 -8.8 °C -12.5 °C 34841.9 hPa SSW 36.2 km/h 36.2 km/h 65 % 0 mm 0.0 W/m2 CLR
23:23 -8.8 °C -12.5 °C 34841.9 hPa SSW 29.8 km/h 29.8 km/h 65 % 0 mm 0.0 W/m2 CLR
23:28 -8.8 °C -12.5 °C 34841.9 hPa SSW 29.8 km/h 29.8 km/h 65 % 0 mm 0.0 W/m2 CLR
23:33 -8.8 °C -12.3 °C 34852.1 hPa SW 29.8 km/h 29.8 km/h 66 % 0 mm 0.0 W/m2 CLR
23:38 -8.8 °C -12.3 °C 34841.9 hPa SSW 35.7 km/h 35.7 km/h 66 % 0 mm 0.0 W/m2 CLR
23:43 -8.8 °C -12.5 °C 34841.9 hPa South 50.7 km/h 50.7 km/h 65 % 0 mm 0.0 W/m2 CLR
23:48 -8.8 °C -12.5 °C 34841.9 hPa SW 35.7 km/h 35.7 km/h 65 % 0 mm 0.0 W/m2 CLR
23:53 -8.8 °C -12.5 °C 34841.9 hPa SSW 26.9 km/h 26.9 km/h 65 % 0 mm 0.0 W/m2 CLR
23:54 -8.8 °C -12.5 °C 34841.9 hPa South 29.8 km/h 29.8 km/h 65 % 0 mm 0.0 W/m2 CLR
23:59 -9.1 °C -12.7 °C 34841.9 hPa South 32.8 km/h 32.8 km/h 66 % 0 mm 0.0 W/m2 CLR
Lo Temps de Massalio
Compliments of Weather Underground - 1.25 mb